createdAt,value
2019-01-19T00:00:18.351Z,94.80
2019-01-19T00:02:51.059Z,94.80
2019-01-19T00:05:23.740Z,94.80
2019-01-19T00:08:02.394Z,94.80
2019-01-19T00:10:38.215Z,94.80
2019-01-19T00:13:20.190Z,94.80
2019-01-19T00:15:52.769Z,94.80
2019-01-19T00:18:31.964Z,94.90
2019-01-19T00:21:18.575Z,94.80
2019-01-19T00:26:05.583Z,94.90
2019-01-19T00:28:35.502Z,94.90
2019-01-19T00:31:05.442Z,94.90
2019-01-19T00:33:44.366Z,94.80
2019-01-19T00:36:14.299Z,94.80
2019-01-19T00:38:44.203Z,94.80
2019-01-19T00:41:16.871Z,94.80
2019-01-19T00:43:44.161Z,94.80
2019-01-19T00:46:20.246Z,94.70
2019-01-19T00:48:53.140Z,94.70
2019-01-19T00:51:23.063Z,94.80
2019-01-19T00:53:55.735Z,94.70
2019-01-19T00:56:46.671Z,95.10
2019-01-19T00:59:16.574Z,94.70
2019-01-19T01:01:49.301Z,94.70
2019-01-19T01:04:37.310Z,94.80
2019-01-19T01:07:16.094Z,94.80
2019-01-19T01:09:51.796Z,94.90
2019-01-19T01:12:38.373Z,95.00
2019-01-19T01:15:32.591Z,94.90
2019-01-19T01:18:02.603Z,94.90
2019-01-19T01:20:35.266Z,94.90
2019-01-19T01:23:23.496Z,95.00
2019-01-19T01:26:14.247Z,95.10
2019-01-19T01:28:50.308Z,95.20
2019-01-19T01:31:26.129Z,95.20
2019-01-19T01:34:11.504Z,95.20
2019-01-19T01:36:44.412Z,95.20
2019-01-19T01:39:14.332Z,95.30
2019-01-19T01:41:47.187Z,95.20
2019-01-19T01:44:19.881Z,95.20
2019-01-19T01:46:58.559Z,95.20
2019-01-19T01:49:28.483Z,95.20
2019-01-19T01:52:04.310Z,95.20
2019-01-19T01:54:36.780Z,95.20
2019-01-19T01:57:06.696Z,95.30
2019-01-19T01:59:56.502Z,95.30
2019-01-19T02:02:41.167Z,95.30
2019-01-19T02:05:31.840Z,95.30
2019-01-19T02:08:16.357Z,95.30
2019-01-19T02:11:01.420Z,95.40
2019-01-19T02:13:43.055Z,95.40
2019-01-19T02:16:32.840Z,95.70
2019-01-19T02:19:29.531Z,95.40
2019-01-19T02:22:09.472Z,95.40
2019-01-19T02:24:55.980Z,95.50
2019-01-19T02:27:28.874Z,95.50
2019-01-19T02:30:01.773Z,95.80
2019-01-19T02:32:43.635Z,95.50
2019-01-19T02:35:19.460Z,95.50
2019-01-19T02:37:55.189Z,95.50
2019-01-19T02:40:34.351Z,95.40
2019-01-19T02:43:10.391Z,95.50
2019-01-19T02:45:55.308Z,95.40
2019-01-19T02:48:50.943Z,95.40
2019-01-19T02:51:35.275Z,95.50
2019-01-19T02:54:11.351Z,95.50
2019-01-19T02:56:41.334Z,95.50
2019-01-19T02:59:27.986Z,95.50
2019-01-19T03:02:00.949Z,95.50
2019-01-19T03:04:39.772Z,95.50
2019-01-19T03:07:18.672Z,95.50
2019-01-19T03:09:56.887Z,95.50
2019-01-19T03:12:52.400Z,95.40
2019-01-19T03:15:55.850Z,95.40
2019-01-19T03:18:37.373Z,95.50
2019-01-19T03:21:28.334Z,95.50
2019-01-19T03:24:00.995Z,95.50
2019-01-19T03:26:39.958Z,95.50
2019-01-19T03:29:24.877Z,95.50
2019-01-19T03:32:06.874Z,95.50
2019-01-19T03:34:53.612Z,95.50
2019-01-19T03:37:47.444Z,95.50
2019-01-19T03:40:25.959Z,95.40
2019-01-19T03:43:27.170Z,95.40
2019-01-19T03:46:21.202Z,95.40
2019-01-19T03:48:53.724Z,95.30
2019-01-19T03:51:26.784Z,95.30
2019-01-19T03:53:56.866Z,95.40
2019-01-19T03:56:38.759Z,95.30
2019-01-19T03:59:23.212Z,95.20
2019-01-19T04:02:05.047Z,95.20
2019-01-19T04:04:47.247Z,95.20
2019-01-19T04:07:20.141Z,95.10
2019-01-19T04:09:56.243Z,95.20
2019-01-19T04:12:34.823Z,95.30
2019-01-19T04:15:24.869Z,95.30
2019-01-19T04:18:09.531Z,95.30
2019-01-19T04:20:42.181Z,95.20
2019-01-19T04:23:08.288Z,95.20
2019-01-19T04:25:40.120Z,95.20
2019-01-19T04:28:06.518Z,95.20
2019-01-19T04:30:32.631Z,95.10
2019-01-19T04:32:58.733Z,95.00
2019-01-19T04:35:24.862Z,94.90
2019-01-19T04:37:50.969Z,94.90
2019-01-19T04:40:17.066Z,94.80
2019-01-19T04:42:44.284Z,94.80
2019-01-19T04:45:10.374Z,94.80
2019-01-19T04:47:36.508Z,94.80
2019-01-19T04:50:05.194Z,94.80
2019-01-19T04:52:31.313Z,94.80
2019-01-19T04:54:57.411Z,94.70
2019-01-19T04:57:23.755Z,94.70
2019-01-19T04:59:49.852Z,94.80
2019-01-19T05:02:15.980Z,94.60
2019-01-19T05:04:42.067Z,94.60
2019-01-19T05:07:08.179Z,94.60
2019-01-19T05:09:34.263Z,94.70
2019-01-19T05:12:00.367Z,94.70
2019-01-19T05:14:26.549Z,94.80
2019-01-19T05:16:52.643Z,94.80
2019-01-19T05:19:18.768Z,94.80
2019-01-19T05:21:44.867Z,94.70
2019-01-19T05:24:10.978Z,94.70
2019-01-19T05:26:37.111Z,94.70
2019-01-19T05:29:03.219Z,94.70
2019-01-19T05:31:29.316Z,94.70
2019-01-19T05:33:55.568Z,94.70
2019-01-19T05:36:21.687Z,94.70
2019-01-19T05:38:47.802Z,95.20
2019-01-19T05:41:13.896Z,94.80
2019-01-19T05:43:39.999Z,94.80
2019-01-19T05:46:06.091Z,94.90
2019-01-19T05:48:32.203Z,95.00
2019-01-19T05:50:58.327Z,95.00
2019-01-19T05:53:24.419Z,95.00
2019-01-19T05:55:50.556Z,95.10
2019-01-19T05:58:16.635Z,95.10
2019-01-19T06:00:42.753Z,95.20
2019-01-19T06:03:08.835Z,95.30
2019-01-19T06:05:36.394Z,95.40
2019-01-19T06:08:02.484Z,95.50
2019-01-19T06:10:28.702Z,95.50
2019-01-19T06:12:54.804Z,95.50
2019-01-19T06:15:20.907Z,95.50
2019-01-19T06:17:47.003Z,95.60
2019-01-19T06:20:15.322Z,95.60
2019-01-19T06:22:41.419Z,95.60
2019-01-19T06:25:10.255Z,95.60
2019-01-19T06:27:36.371Z,95.60
2019-01-19T06:30:05.913Z,95.80
2019-01-19T06:32:32.011Z,95.90
2019-01-19T06:34:58.118Z,95.90
2019-01-19T06:37:24.327Z,95.90
2019-01-19T06:39:50.418Z,96.00
2019-01-19T06:42:16.547Z,96.00
2019-01-19T06:44:42.631Z,95.90
2019-01-19T06:47:08.820Z,95.90
2019-01-19T06:49:35.035Z,95.90
2019-01-19T06:55:26.270Z,96.10
2019-01-19T06:57:52.434Z,96.40
2019-01-19T07:00:18.641Z,96.20
2019-01-19T07:02:44.758Z,96.20
2019-01-19T07:05:10.995Z,96.30
2019-01-19T07:07:37.107Z,96.40
2019-01-19T07:10:09.315Z,96.60
2019-01-19T07:12:35.439Z,96.80
2019-01-19T07:15:01.553Z,97.10
2019-01-19T07:17:27.641Z,96.90
2019-01-19T07:19:53.755Z,96.90
2019-01-19T07:22:19.863Z,97.00
2019-01-19T07:24:45.994Z,97.00
2019-01-19T07:27:12.097Z,96.90
2019-01-19T07:29:38.330Z,96.90
2019-01-19T07:32:04.406Z,96.80
2019-01-19T07:34:30.527Z,96.80
2019-01-19T07:36:56.620Z,96.70
2019-01-19T07:39:22.772Z,96.70
2019-01-19T07:41:48.870Z,96.80
2019-01-19T07:44:15.023Z,96.90
2019-01-19T07:46:41.738Z,96.90
2019-01-19T07:49:07.861Z,96.90
2019-01-19T07:51:33.963Z,96.50
2019-01-19T07:54:00.163Z,96.30
2019-01-19T07:56:26.273Z,96.10
2019-01-19T07:58:52.429Z,96.00
2019-01-19T08:01:18.547Z,95.80
2019-01-19T08:03:44.687Z,95.70
2019-01-19T08:06:10.807Z,95.50
2019-01-19T08:08:36.902Z,94.70
2019-01-19T08:11:03.064Z,94.70
2019-01-19T08:13:29.146Z,94.40
2019-01-19T08:15:55.746Z,93.70
2019-01-19T08:18:21.846Z,93.60
2019-01-19T08:20:47.969Z,93.40
2019-01-19T08:23:14.070Z,93.30
2019-01-19T08:25:40.200Z,92.60
2019-01-19T08:28:06.294Z,92.20
2019-01-19T08:30:32.411Z,91.90
2019-01-19T08:32:58.503Z,91.60
2019-01-19T08:35:24.640Z,91.10
2019-01-19T08:37:50.767Z,90.80
2019-01-19T08:40:23.658Z,90.20
2019-01-19T08:42:51.685Z,90.10
2019-01-19T08:45:18.572Z,89.80
2019-01-19T08:47:44.693Z,88.80
2019-01-19T08:50:10.843Z,88.90
2019-01-19T08:52:36.971Z,88.10
2019-01-19T08:55:06.396Z,87.70
2019-01-19T08:57:32.998Z,86.60
2019-01-19T08:59:59.135Z,86.80
2019-01-19T09:02:25.276Z,85.80
2019-01-19T09:04:51.392Z,86.00
2019-01-19T09:07:17.515Z,85.00
2019-01-19T09:09:43.622Z,83.80
2019-01-19T09:12:09.747Z,83.80
2019-01-19T09:14:35.865Z,83.50
2019-01-19T09:17:02.014Z,82.50
2019-01-19T09:19:28.131Z,83.30
2019-01-19T09:21:54.254Z,82.40
2019-01-19T09:24:20.944Z,80.90
2019-01-19T09:26:47.439Z,82.30
2019-01-19T09:29:13.608Z,81.70
2019-01-19T09:31:39.703Z,80.60
2019-01-19T09:34:05.811Z,79.40
2019-01-19T09:36:31.895Z,79.40
2019-01-19T09:38:58.038Z,78.00
2019-01-19T09:41:24.135Z,78.10
2019-01-19T09:43:50.268Z,77.90
2019-01-19T09:46:16.374Z,77.20
2019-01-19T09:48:42.490Z,75.50
2019-01-19T09:51:08.618Z,74.40
2019-01-19T09:53:34.767Z,72.90
2019-01-19T09:56:00.895Z,71.60
2019-01-19T09:58:27.059Z,70.10
2019-01-19T10:00:53.167Z,67.30
2019-01-19T10:03:19.327Z,64.60
2019-01-19T10:05:45.400Z,62.00
2019-01-19T10:08:11.542Z,60.10
2019-01-19T10:10:37.638Z,58.50
2019-01-19T10:13:03.745Z,56.80
2019-01-19T10:15:29.889Z,54.90
2019-01-19T10:17:56.175Z,53.00
2019-01-19T10:20:25.314Z,51.40
2019-01-19T10:22:51.406Z,48.80
2019-01-19T10:25:19.799Z,45.90
2019-01-19T10:27:45.959Z,43.10
2019-01-19T10:30:16.008Z,41.60
2019-01-19T10:32:42.112Z,40.30
2019-01-19T10:35:11.219Z,41.10
2019-01-19T10:37:37.342Z,40.50
2019-01-19T10:40:09.819Z,40.80
2019-01-19T10:42:35.945Z,39.10
2019-01-19T10:45:02.978Z,37.80
2019-01-19T10:47:29.094Z,38.00
2019-01-19T10:49:55.201Z,36.60
2019-01-19T10:52:21.359Z,36.00
2019-01-19T10:54:47.467Z,36.20
2019-01-19T10:57:13.674Z,35.30
2019-01-19T10:59:39.784Z,34.40
2019-01-19T11:02:05.899Z,34.30
2019-01-19T11:04:32.006Z,34.50
2019-01-19T11:06:58.180Z,33.70
2019-01-19T11:09:24.370Z,32.50
2019-01-19T11:11:50.559Z,33.00
2019-01-19T11:14:16.663Z,31.70
2019-01-19T11:16:42.840Z,30.70
2019-01-19T11:19:08.974Z,30.10
2019-01-19T11:21:35.127Z,29.80
2019-01-19T11:24:01.255Z,29.90
2019-01-19T11:26:27.346Z,29.40
2019-01-19T11:28:53.503Z,29.50
2019-01-19T11:31:19.776Z,29.20
2019-01-19T11:33:45.888Z,29.60
2019-01-19T11:36:11.995Z,29.90
2019-01-19T11:38:38.102Z,29.60
2019-01-19T11:41:04.546Z,29.00
2019-01-19T11:43:30.694Z,28.90
2019-01-19T11:45:56.816Z,28.40
2019-01-19T11:48:23.080Z,28.20
2019-01-19T11:50:49.165Z,27.30
2019-01-19T11:53:15.348Z,26.70
2019-01-19T11:55:41.488Z,27.00
2019-01-19T11:58:07.707Z,26.50
2019-01-19T12:00:36.308Z,25.50
2019-01-19T12:03:03.149Z,25.40
2019-01-19T12:05:29.321Z,25.10
2019-01-19T12:07:55.447Z,25.20
2019-01-19T12:10:26.479Z,25.50
2019-01-19T12:12:52.606Z,26.00
2019-01-19T12:15:18.747Z,26.20
2019-01-19T12:17:45.013Z,26.40
2019-01-19T12:20:14.574Z,27.20
2019-01-19T12:22:40.693Z,27.90
2019-01-19T12:25:10.230Z,27.60
2019-01-19T12:27:36.444Z,27.10
2019-01-19T12:30:09.308Z,26.40
2019-01-19T12:32:35.520Z,26.20
2019-01-19T12:35:01.666Z,25.40
2019-01-19T12:37:27.759Z,25.90
2019-01-19T12:39:53.923Z,27.30
2019-01-19T12:42:20.035Z,27.10
2019-01-19T12:44:46.243Z,26.10
2019-01-19T12:47:12.391Z,25.90
2019-01-19T12:49:38.531Z,25.90
2019-01-19T12:52:04.705Z,25.40
2019-01-19T12:54:31.357Z,25.70
2019-01-19T12:56:57.571Z,24.50
2019-01-19T12:59:23.719Z,24.20
2019-01-19T13:01:49.849Z,24.40
2019-01-19T13:04:15.995Z,24.20
2019-01-19T13:06:42.147Z,23.80
2019-01-19T13:09:12.650Z,23.80
2019-01-19T13:11:49.295Z,24.00
2019-01-19T13:14:15.463Z,23.90
2019-01-19T13:17:09.578Z,23.70
2019-01-19T13:19:39.600Z,23.80
2019-01-19T13:22:29.546Z,23.70
2019-01-19T13:25:11.743Z,23.70
2019-01-19T13:27:41.731Z,22.90
2019-01-19T13:30:20.758Z,23.80
2019-01-19T13:32:56.700Z,23.20
2019-01-19T13:35:26.780Z,23.00
2019-01-19T13:38:22.325Z,23.60
2019-01-19T13:41:07.279Z,24.20
2019-01-19T13:43:59.730Z,24.30
2019-01-19T13:47:03.421Z,24.30
2019-01-19T13:50:02.594Z,24.70
2019-01-19T13:52:55.695Z,24.20
2019-01-19T13:55:39.900Z,24.10
2019-01-19T13:58:12.750Z,23.80
2019-01-19T14:00:59.446Z,23.30
2019-01-19T14:03:38.592Z,23.20
2019-01-19T14:06:08.539Z,23.40
2019-01-19T14:08:49.396Z,23.70
2019-01-19T14:11:22.112Z,23.60
2019-01-19T14:14:23.425Z,23.60
2019-01-19T14:16:56.316Z,23.40
2019-01-19T14:19:26.256Z,23.60
2019-01-19T14:22:21.377Z,24.20
2019-01-19T14:25:11.139Z,24.20
2019-01-19T14:27:46.790Z,24.50
2019-01-19T14:30:28.740Z,24.90
2019-01-19T14:32:58.694Z,25.60
2019-01-19T14:35:40.629Z,25.30
2019-01-19T14:38:22.539Z,25.40
2019-01-19T14:41:09.323Z,25.20
2019-01-19T14:43:39.254Z,25.60
2019-01-19T14:46:37.607Z,25.50
2019-01-19T14:49:30.309Z,25.70
2019-01-19T14:52:00.298Z,26.50
2019-01-19T14:54:30.247Z,26.80
2019-01-19T14:57:12.454Z,27.20
2019-01-19T14:59:49.404Z,27.60
2019-01-19T15:02:39.444Z,29.10
2019-01-19T15:05:27.699Z,29.90
2019-01-19T15:08:16.056Z,31.30
2019-01-19T15:10:46.002Z,32.40
2019-01-19T15:13:21.731Z,34.00
2019-01-19T15:16:08.352Z,36.20
2019-01-19T15:18:41.563Z,39.80
2019-01-19T15:21:26.756Z,43.20
2019-01-19T15:23:59.651Z,45.20
2019-01-19T15:26:37.876Z,47.20
2019-01-19T15:29:19.276Z,49.10
2019-01-19T15:32:01.040Z,50.20
2019-01-19T15:34:50.867Z,51.70
2019-01-19T15:37:43.666Z,53.10
2019-01-19T15:40:39.411Z,53.40
2019-01-19T15:43:26.019Z,54.10
2019-01-19T15:46:11.156Z,55.10
2019-01-19T15:48:50.332Z,55.60
2019-01-19T15:51:23.286Z,56.20
2019-01-19T15:54:05.225Z,57.10
2019-01-19T15:56:58.906Z,58.10
2019-01-19T15:59:40.387Z,58.80
2019-01-19T16:02:25.487Z,59.80
2019-01-19T16:05:27.175Z,61.50
2019-01-19T16:08:24.072Z,62.50
2019-01-19T16:10:54.033Z,63.90
2019-01-19T16:13:29.728Z,65.30
2019-01-19T16:16:11.718Z,67.10
2019-01-19T16:19:15.055Z,67.00
2019-01-19T16:22:00.351Z,68.10
2019-01-19T16:24:42.141Z,69.20
2019-01-19T16:27:21.266Z,71.00
2019-01-19T16:30:22.903Z,71.00
2019-01-19T16:33:10.998Z,71.30
2019-01-19T16:35:49.863Z,72.00
2019-01-19T16:38:37.794Z,72.00
2019-01-19T16:41:31.512Z,72.40
2019-01-19T16:44:24.416Z,71.70
2019-01-19T16:47:06.294Z,71.90
2019-01-19T16:49:36.281Z,72.30
2019-01-19T16:52:30.709Z,73.10
2019-01-19T16:55:23.494Z,72.30
2019-01-19T16:57:57.271Z,71.70
2019-01-19T17:00:56.263Z,71.90
2019-01-19T17:03:41.257Z,72.10
2019-01-19T17:06:37.045Z,71.30
2019-01-19T17:09:23.816Z,71.30
2019-01-19T17:12:10.440Z,72.20
2019-01-19T17:15:09.219Z,71.60
2019-01-19T17:17:45.328Z,71.40
2019-01-19T17:20:31.899Z,71.70
2019-01-19T17:23:04.985Z,72.00
2019-01-19T17:26:00.963Z,71.40
2019-01-19T17:28:33.985Z,72.10
2019-01-19T17:31:09.950Z,72.10
2019-01-19T17:33:54.714Z,72.50
2019-01-19T17:36:36.531Z,72.70
2019-01-19T17:39:18.495Z,72.90
2019-01-19T17:42:09.752Z,73.20
2019-01-19T17:44:42.741Z,73.80
2019-01-19T17:47:21.621Z,74.30
2019-01-19T17:50:12.340Z,74.20
2019-01-19T17:52:50.735Z,74.70
2019-01-19T17:55:20.724Z,74.50
2019-01-19T17:58:18.084Z,74.70
2019-01-19T18:00:49.285Z,75.60
2019-01-19T18:03:28.275Z,75.20
2019-01-19T18:06:04.160Z,75.60
2019-01-19T18:08:55.467Z,75.20
2019-01-19T18:11:25.416Z,75.20
2019-01-19T18:14:07.493Z,75.80
2019-01-19T18:16:57.458Z,76.00
2019-01-19T18:19:27.411Z,76.10
2019-01-19T18:22:15.774Z,76.40
2019-01-19T18:24:51.181Z,77.20
2019-01-19T18:27:33.359Z,77.00
2019-01-19T18:30:25.906Z,76.90
2019-01-19T18:33:16.470Z,77.40
2019-01-19T18:36:04.790Z,77.50
2019-01-19T18:39:08.192Z,77.40
2019-01-19T18:41:47.177Z,77.20
2019-01-19T18:44:17.132Z,77.30
2019-01-19T18:47:08.380Z,77.70
2019-01-19T18:49:41.313Z,77.70
2019-01-19T18:52:17.142Z,77.50
2019-01-19T18:54:49.830Z,77.80
2019-01-19T18:57:34.837Z,78.30
2019-01-19T19:00:10.937Z,77.90
2019-01-19T19:02:53.215Z,78.30
2019-01-19T19:05:39.788Z,78.80
2019-01-19T19:08:09.844Z,78.90
2019-01-19T19:10:54.895Z,79.80
2019-01-19T19:13:36.860Z,79.30
2019-01-19T19:16:07.376Z,79.10
2019-01-19T19:18:40.165Z,79.30
2019-01-19T19:21:12.934Z,79.20
2019-01-19T19:23:59.452Z,79.70
2019-01-19T19:26:47.619Z,79.50
2019-01-19T19:29:23.466Z,79.60
2019-01-19T19:31:59.223Z,80.00
2019-01-19T19:34:48.776Z,79.80
2019-01-19T19:37:49.119Z,80.20
2019-01-19T19:40:37.307Z,80.00
2019-01-19T19:43:19.200Z,80.70
2019-01-19T19:45:49.154Z,81.20
2019-01-19T19:48:30.853Z,81.00
2019-01-19T19:51:03.390Z,81.00
2019-01-19T19:53:29.516Z,81.50
2019-01-19T19:55:55.555Z,81.80
2019-01-19T19:58:21.685Z,81.90
2019-01-19T20:00:47.935Z,82.00
2019-01-19T20:03:14.064Z,82.10
2019-01-19T20:05:41.600Z,82.10
2019-01-19T20:08:07.887Z,81.60
2019-01-19T20:10:33.997Z,81.90
2019-01-19T20:13:00.250Z,81.50
2019-01-19T20:15:26.364Z,81.70
2019-01-19T20:17:52.571Z,81.80
2019-01-19T20:20:18.813Z,81.50
2019-01-19T20:22:45.133Z,81.40
2019-01-19T20:27:50.808Z,81.50
2019-01-19T20:30:16.956Z,81.50
2019-01-19T20:32:43.131Z,81.60
2019-01-19T20:35:09.269Z,81.30
2019-01-19T20:37:35.400Z,82.10
2019-01-19T20:40:04.595Z,80.70
2019-01-19T20:42:30.786Z,80.70
2019-01-19T20:44:56.897Z,79.80
2019-01-19T20:47:23.009Z,80.10
2019-01-19T20:49:49.745Z,79.50
2019-01-19T20:52:16.029Z,79.50
2019-01-19T20:54:42.185Z,78.60
2019-01-19T20:57:08.288Z,79.10
2019-01-19T20:59:34.467Z,78.80
2019-01-19T21:02:00.584Z,78.90
2019-01-19T21:04:26.859Z,78.60
2019-01-19T21:06:53.026Z,78.90
2019-01-19T21:09:19.167Z,78.20
2019-01-19T21:11:45.326Z,77.70
2019-01-19T21:14:11.464Z,77.60
2019-01-19T21:16:37.603Z,77.20
2019-01-19T21:19:03.836Z,77.10
2019-01-19T21:21:30.001Z,76.30
2019-01-19T21:23:56.152Z,76.00
2019-01-19T21:26:22.504Z,76.00
2019-01-19T21:28:48.636Z,76.70
2019-01-19T21:31:14.867Z,77.00
2019-01-19T21:33:41.104Z,76.90
2019-01-19T21:36:07.282Z,76.40
2019-01-19T21:38:33.518Z,76.80
2019-01-19T21:40:59.701Z,76.90
2019-01-19T21:43:25.837Z,76.10
2019-01-19T21:45:52.003Z,75.80
2019-01-19T21:48:18.216Z,75.30
2019-01-19T21:50:44.352Z,75.70
2019-01-19T21:53:10.449Z,75.50
2019-01-19T21:55:36.668Z,75.20
2019-01-19T21:58:02.906Z,75.60
2019-01-19T22:00:29.188Z,75.70
2019-01-19T22:02:55.710Z,75.70
2019-01-19T22:05:21.852Z,76.20
2019-01-19T22:07:48.011Z,76.50
2019-01-19T22:10:20.023Z,76.50
2019-01-19T22:12:46.312Z,76.30
2019-01-19T22:15:14.561Z,76.50
2019-01-19T22:17:41.400Z,77.40
2019-01-19T22:20:10.355Z,76.70
2019-01-19T22:22:36.559Z,76.60
2019-01-19T22:25:04.280Z,77.10
2019-01-19T22:27:31.022Z,77.30
2019-01-19T22:29:57.142Z,77.40
2019-01-19T22:32:23.287Z,77.60
2019-01-19T22:34:49.424Z,77.60
2019-01-19T22:37:15.523Z,77.70
2019-01-19T22:39:41.647Z,77.90
2019-01-19T22:42:07.927Z,78.10
2019-01-19T22:44:34.035Z,77.90
2019-01-19T22:47:00.169Z,77.60
2019-01-19T22:49:26.293Z,77.30
2019-01-19T22:51:52.424Z,77.50
2019-01-19T22:54:18.824Z,77.90
2019-01-19T22:56:44.943Z,78.20
2019-01-19T22:59:11.077Z,78.40
2019-01-19T23:01:37.341Z,78.80
2019-01-19T23:04:04.461Z,78.70
2019-01-19T23:06:30.587Z,78.80
2019-01-19T23:08:56.721Z,78.40
2019-01-19T23:11:22.890Z,78.50
2019-01-19T23:13:49.117Z,78.90
2019-01-19T23:16:15.520Z,79.20
2019-01-19T23:18:41.722Z,79.00
2019-01-19T23:21:07.854Z,79.40
2019-01-19T23:23:33.999Z,79.20
2019-01-19T23:26:01.795Z,79.20
2019-01-19T23:28:28.078Z,79.30
2019-01-19T23:30:54.273Z,79.00
2019-01-19T23:33:20.372Z,79.30
2019-01-19T23:35:46.536Z,79.40
2019-01-19T23:38:12.710Z,80.80
2019-01-19T23:40:38.900Z,80.80
2019-01-19T23:43:05.036Z,81.50
2019-01-19T23:45:31.289Z,81.70
2019-01-19T23:47:57.436Z,81.50
2019-01-19T23:50:23.721Z,82.50
2019-01-19T23:52:49.927Z,82.20
2019-01-19T23:55:16.059Z,82.60
2019-01-19T23:57:42.210Z,83.20
